createdAt,value
2023-04-15T00:01:19.791Z,98900.78
2023-04-15T00:03:51.035Z,98902.52
2023-04-15T00:06:22.303Z,98899.02
2023-04-15T00:08:50.897Z,98896.98
2023-04-15T00:11:20.263Z,98895.21
2023-04-15T00:13:48.517Z,98887.56
2023-04-15T00:16:17.241Z,98883.95
2023-04-15T00:18:46.225Z,98885.86
2023-04-15T00:21:14.458Z,98884.24
2023-04-15T00:23:42.639Z,98884.15
2023-04-15T00:26:11.060Z,98884.30
2023-04-15T00:28:39.644Z,98886.20
2023-04-15T00:31:07.991Z,98888.27
2023-04-15T00:33:37.127Z,98887.41
2023-04-15T00:36:08.787Z,98890.77
2023-04-15T00:38:38.971Z,98881.31
2023-04-15T00:41:07.902Z,98878.95
2023-04-15T00:43:36.674Z,98880.59
2023-04-15T00:46:06.746Z,98877.82
2023-04-15T00:48:36.663Z,98881.41
2023-04-15T00:51:05.280Z,98884.55
2023-04-15T00:53:33.658Z,98883.18
2023-04-15T00:56:02.145Z,98886.77
2023-04-15T00:58:30.835Z,98883.20
2023-04-15T01:01:00.205Z,98883.55
2023-04-15T01:03:30.623Z,98885.70
2023-04-15T01:06:03.575Z,98890.11
2023-04-15T01:08:33.252Z,98886.66
2023-04-15T01:11:03.794Z,98886.52
2023-04-15T01:13:34.620Z,98882.52
2023-04-15T01:16:03.520Z,98882.40
2023-04-15T01:18:32.399Z,98883.23
2023-04-15T01:21:05.402Z,98882.80
2023-04-15T01:23:37.153Z,98889.81
2023-04-15T01:26:09.150Z,98887.48
2023-04-15T01:28:38.514Z,98885.55
2023-04-15T01:31:12.650Z,98882.14
2023-04-15T01:33:42.962Z,98875.18
2023-04-15T01:36:11.255Z,98879.02
2023-04-15T01:38:39.809Z,98879.16
2023-04-15T01:41:08.490Z,98881.85
2023-04-15T01:43:40.693Z,98883.42
2023-04-15T01:46:10.912Z,98889.74
2023-04-15T01:48:39.379Z,98889.33
2023-04-15T01:51:08.405Z,98897.40
2023-04-15T01:53:37.567Z,98896.17
2023-04-15T01:56:07.487Z,98895.77
2023-04-15T01:58:36.094Z,98900.08
2023-04-15T02:01:04.913Z,98898.73
2023-04-15T02:03:33.845Z,98896.96
2023-04-15T02:06:02.739Z,98898.37
2023-04-15T02:08:31.329Z,98894.86
2023-04-15T02:11:01.424Z,98897.75
2023-04-15T02:13:30.543Z,98892.36
2023-04-15T02:15:59.993Z,98893.55
2023-04-15T02:18:28.539Z,98903.42
2023-04-15T02:20:58.988Z,98901.02
2023-04-15T02:23:27.624Z,98902.94
2023-04-15T02:25:55.912Z,98898.21
2023-04-15T02:28:24.293Z,98896.95
2023-04-15T02:30:53.726Z,98901.03
2023-04-15T02:33:22.325Z,98901.89
2023-04-15T02:35:51.065Z,98908.23
2023-04-15T02:38:19.564Z,98916.67
2023-04-15T02:40:50.468Z,98904.45
2023-04-15T02:43:19.075Z,98904.02
2023-04-15T02:45:47.595Z,98906.81
2023-04-15T02:48:20.561Z,98909.73
2023-04-15T02:50:48.912Z,98910.71
2023-04-15T02:53:17.909Z,98909.00
2023-04-15T02:55:46.683Z,98910.80
2023-04-15T02:58:17.979Z,98912.38
2023-04-15T03:00:46.692Z,98911.43
2023-04-15T03:03:16.038Z,98909.91
2023-04-15T03:05:45.009Z,98916.95
2023-04-15T03:08:17.388Z,98918.04
2023-04-15T03:10:45.875Z,98923.67
2023-04-15T03:13:16.206Z,98919.65
2023-04-15T03:15:47.688Z,98921.77
2023-04-15T03:21:02.805Z,98932.13
2023-04-15T03:23:32.294Z,98934.75
2023-04-15T03:26:05.244Z,98942.43
2023-04-15T03:28:34.627Z,98949.38
2023-04-15T03:31:03.442Z,98951.23
2023-04-15T03:33:32.004Z,98955.10
2023-04-15T03:36:00.806Z,98951.71
2023-04-15T03:38:29.060Z,98948.41
2023-04-15T03:40:57.224Z,98955.17
2023-04-15T03:43:26.217Z,98961.92
2023-04-15T03:45:54.702Z,98966.00
2023-04-15T03:48:22.923Z,98969.21
2023-04-15T03:50:51.170Z,98974.46
2023-04-15T03:53:19.551Z,98982.14
2023-04-15T03:55:47.955Z,98992.23
2023-04-15T03:58:16.737Z,98998.93
2023-04-15T04:00:45.204Z,99001.23
2023-04-15T04:03:13.926Z,99007.73
2023-04-15T04:05:44.260Z,99013.31
2023-04-15T04:08:14.113Z,99012.88
2023-04-15T04:10:43.327Z,99016.16
2023-04-15T04:13:11.700Z,99014.84
2023-04-15T04:15:40.195Z,99020.28
2023-04-15T04:18:08.662Z,99026.34
2023-04-15T04:20:37.153Z,99022.60
2023-04-15T04:23:05.821Z,99016.35
2023-04-15T04:25:34.831Z,99027.39
2023-04-15T04:28:03.919Z,99034.29
2023-04-15T04:30:32.300Z,99032.41
2023-04-15T04:33:01.132Z,99039.23
2023-04-15T04:35:29.764Z,99034.13
2023-04-15T04:37:58.356Z,99035.36
2023-04-15T04:40:27.685Z,99035.40
2023-04-15T04:42:56.231Z,99040.73
2023-04-15T04:45:24.714Z,99046.58
2023-04-15T04:47:53.094Z,99053.76
2023-04-15T04:50:21.995Z,99057.19
2023-04-15T04:52:50.766Z,99061.92
2023-04-15T04:55:19.557Z,99062.64
2023-04-15T04:57:47.810Z,99064.13
2023-04-15T05:00:17.138Z,99069.81
2023-04-15T05:02:46.323Z,99075.02
2023-04-15T05:05:15.218Z,99077.31
2023-04-15T05:07:43.716Z,99083.82
2023-04-15T05:10:12.177Z,99085.03
2023-04-15T05:12:40.487Z,99087.19
2023-04-15T05:15:09.884Z,99089.88
2023-04-15T05:17:38.300Z,99085.54
2023-04-15T05:20:07.640Z,99084.44
2023-04-15T05:22:36.245Z,99088.09
2023-04-15T05:25:05.191Z,99094.02
2023-04-15T05:27:33.511Z,99099.41
2023-04-15T05:30:02.122Z,99101.55
2023-04-15T05:32:30.488Z,99098.63
2023-04-15T05:34:58.958Z,99103.35
2023-04-15T05:37:27.445Z,99105.15
2023-04-15T05:39:57.079Z,99101.38
2023-04-15T05:42:25.726Z,99105.82
2023-04-15T05:44:54.109Z,99107.04
2023-04-15T05:47:22.556Z,99113.20
2023-04-15T05:49:51.090Z,99114.13
2023-04-15T05:52:19.646Z,99120.83
2023-04-15T05:54:48.338Z,99125.87
2023-04-15T05:57:17.121Z,99127.35
2023-04-15T05:59:45.503Z,99127.02
2023-04-15T06:02:14.220Z,99133.80
2023-04-15T06:04:42.939Z,99135.65
2023-04-15T06:07:11.391Z,99137.45
2023-04-15T06:09:39.827Z,99135.89
2023-04-15T06:12:12.530Z,99141.21
2023-04-15T06:14:41.322Z,99137.79
2023-04-15T06:17:09.890Z,99145.23
2023-04-15T06:19:38.307Z,99152.35
2023-04-15T06:22:07.682Z,99152.92
2023-04-15T06:24:37.386Z,99156.55
2023-04-15T06:27:05.758Z,99153.58
2023-04-15T06:29:34.148Z,99163.48
2023-04-15T06:32:02.832Z,99163.83
2023-04-15T06:34:31.513Z,99173.76
2023-04-15T06:37:01.226Z,99171.83
2023-04-15T06:39:29.904Z,99182.55
2023-04-15T06:41:58.490Z,99186.65
2023-04-15T06:44:27.082Z,99182.77
2023-04-15T06:46:55.866Z,99186.55
2023-04-15T06:49:24.477Z,99184.52
2023-04-15T06:51:53.432Z,99185.39
2023-04-15T06:54:22.942Z,99182.52
2023-04-15T06:56:51.846Z,99185.29
2023-04-15T06:59:21.358Z,99185.39
2023-04-15T07:01:50.256Z,99188.00
2023-04-15T07:04:20.930Z,99190.70
2023-04-15T07:06:50.913Z,99192.98
2023-04-15T07:09:21.004Z,99195.45
2023-04-15T07:11:50.190Z,99202.33
2023-04-15T07:14:19.007Z,99206.09
2023-04-15T07:16:47.902Z,99203.70
2023-04-15T07:19:16.585Z,99199.03
2023-04-15T07:21:46.352Z,99205.47
2023-04-15T07:24:18.353Z,99210.13
2023-04-15T07:26:47.435Z,99216.70
2023-04-15T07:29:17.038Z,99218.02
2023-04-15T07:31:47.231Z,99217.79
2023-04-15T07:34:17.698Z,99205.89
2023-04-15T07:36:46.329Z,99207.88
2023-04-15T07:39:16.392Z,99213.80
2023-04-15T07:41:47.106Z,99216.89
2023-04-15T07:44:16.136Z,99224.28
2023-04-15T07:46:45.848Z,99229.11
2023-04-15T07:49:14.934Z,99234.73
2023-04-15T07:51:44.644Z,99233.12
2023-04-15T07:54:13.581Z,99238.94
2023-04-15T07:56:42.117Z,99231.71
2023-04-15T07:59:10.811Z,99240.91
2023-04-15T08:01:39.806Z,99240.06
2023-04-15T08:04:08.472Z,99242.67
2023-04-15T08:06:40.239Z,99238.61
2023-04-15T08:09:08.946Z,99235.66
2023-04-15T08:11:38.559Z,99237.99
2023-04-15T08:14:08.415Z,99235.86
2023-04-15T08:16:37.696Z,99237.77
2023-04-15T08:19:07.660Z,99245.17
2023-04-15T08:21:37.302Z,99245.59
2023-04-15T08:24:07.113Z,99244.79
2023-04-15T08:26:36.095Z,99243.12
2023-04-15T08:29:04.816Z,99244.48
2023-04-15T08:31:34.302Z,99243.40
2023-04-15T08:34:03.174Z,99252.16
2023-04-15T08:36:32.743Z,99257.96
2023-04-15T08:39:05.347Z,99259.40
2023-04-15T08:41:48.133Z,99260.29
2023-04-15T08:44:18.391Z,99261.41
2023-04-15T08:46:48.348Z,99262.79
2023-04-15T08:49:19.544Z,99260.84
2023-04-15T08:51:48.878Z,99259.74
2023-04-15T08:54:17.536Z,99263.91
2023-04-15T08:56:46.796Z,99267.08
2023-04-15T08:59:16.783Z,99278.02
2023-04-15T09:01:45.774Z,99280.36
2023-04-15T09:04:14.717Z,99279.23
2023-04-15T09:06:43.214Z,99279.60
2023-04-15T09:09:14.707Z,99282.87
2023-04-15T09:11:43.863Z,99280.67
2023-04-15T09:14:13.890Z,99289.09
2023-04-15T09:17:00.936Z,99290.04
2023-04-15T09:19:30.260Z,99292.83
2023-04-15T09:22:00.627Z,99293.10
2023-04-15T09:24:38.768Z,99290.98
2023-04-15T09:27:07.703Z,99286.67
2023-04-15T09:29:37.398Z,99285.29
2023-04-15T09:32:14.415Z,99287.45
2023-04-15T09:34:43.634Z,99283.02
2023-04-15T09:37:28.490Z,99284.56
2023-04-15T09:40:00.790Z,99288.09
2023-04-15T09:42:29.534Z,99285.61
2023-04-15T09:45:09.548Z,99283.63
2023-04-15T09:47:38.658Z,99286.06
2023-04-15T09:50:08.408Z,99288.70
2023-04-15T09:52:49.358Z,99293.64
2023-04-15T09:55:19.168Z,99297.04
2023-04-15T09:57:47.764Z,99300.45
2023-04-15T10:00:16.769Z,99299.21
2023-04-15T10:02:48.088Z,99299.73
2023-04-15T10:05:18.154Z,99300.27
2023-04-15T10:07:47.471Z,99304.70
2023-04-15T10:10:16.412Z,99308.70
2023-04-15T10:12:45.837Z,99309.57
2023-04-15T10:15:17.755Z,99310.83
2023-04-15T10:17:50.861Z,99309.92
2023-04-15T10:20:20.158Z,99308.06
2023-04-15T10:22:49.041Z,99310.85
2023-04-15T10:25:18.642Z,99313.71
2023-04-15T10:27:48.869Z,99314.23
2023-04-15T10:30:19.518Z,99311.60
2023-04-15T10:32:49.893Z,99310.89
2023-04-15T10:35:21.914Z,99312.91
2023-04-15T10:37:50.605Z,99308.59
2023-04-15T10:40:28.472Z,99307.94
2023-04-15T10:43:01.883Z,99310.30
2023-04-15T10:45:38.066Z,99311.49
2023-04-15T10:48:08.877Z,99315.24
2023-04-15T10:50:38.196Z,99314.55
2023-04-15T10:53:06.673Z,99306.83
2023-04-15T10:55:36.183Z,99315.32
2023-04-15T10:58:04.550Z,99320.71
2023-04-15T11:00:35.413Z,99321.60
2023-04-15T11:03:08.804Z,99318.75
2023-04-15T11:05:43.621Z,99325.23
2023-04-15T11:08:14.037Z,99325.21
2023-04-15T11:10:43.578Z,99328.52
2023-04-15T11:13:12.549Z,99333.26
2023-04-15T11:15:45.970Z,99332.85
2023-04-15T11:18:19.970Z,99337.10
2023-04-15T11:21:00.632Z,99341.71
2023-04-15T11:23:35.253Z,99345.75
2023-04-15T11:26:09.560Z,99340.90
2023-04-15T11:28:41.203Z,99350.52
2023-04-15T11:31:12.477Z,99341.98
2023-04-15T11:33:54.588Z,99348.28
2023-04-15T11:36:28.020Z,99348.12
2023-04-15T11:38:59.248Z,99352.29
2023-04-15T11:41:28.292Z,99353.84
2023-04-15T11:43:56.785Z,99359.75
2023-04-15T11:46:32.209Z,99358.90
2023-04-15T11:49:01.018Z,99362.77
2023-04-15T11:51:34.479Z,99362.57
2023-04-15T11:54:04.288Z,99371.56
2023-04-15T11:56:33.254Z,99373.98
2023-04-15T11:59:02.536Z,99368.12
2023-04-15T12:01:47.307Z,99369.81
2023-04-15T12:04:23.536Z,99369.13
2023-04-15T12:06:54.085Z,99368.60
2023-04-15T12:09:22.482Z,99369.98
2023-04-15T12:11:53.204Z,99374.20
2023-04-15T12:14:33.177Z,99376.72
2023-04-15T12:17:07.046Z,99382.04
2023-04-15T12:19:42.162Z,99384.67
2023-04-15T12:22:17.720Z,99387.41
2023-04-15T12:24:48.572Z,99386.33
2023-04-15T12:27:17.890Z,99388.36
2023-04-15T12:29:46.366Z,99392.76
2023-04-15T12:32:16.479Z,99389.90
2023-04-15T12:34:53.521Z,99392.85
2023-04-15T12:37:22.345Z,99393.55
2023-04-15T12:39:52.561Z,99392.71
2023-04-15T12:42:21.151Z,99392.72
2023-04-15T12:44:49.981Z,99392.77
2023-04-15T12:47:18.661Z,99394.30
2023-04-15T12:49:47.534Z,99395.61
2023-04-15T12:52:17.017Z,99393.17
2023-04-15T12:54:46.444Z,99395.29
2023-04-15T12:57:14.986Z,99395.25
2023-04-15T12:59:43.801Z,99398.45
2023-04-15T13:02:14.008Z,99395.38
2023-04-15T13:04:43.037Z,99393.75
2023-04-15T13:07:13.774Z,99397.10
2023-04-15T13:09:44.377Z,99399.29
2023-04-15T13:12:14.729Z,99399.46
2023-04-15T13:14:43.395Z,99400.23
2023-04-15T13:17:11.981Z,99404.40
2023-04-15T13:19:40.971Z,99400.33
2023-04-15T13:22:10.240Z,99401.18
2023-04-15T13:24:39.562Z,99401.13
2023-04-15T13:27:08.775Z,99403.15
2023-04-15T13:29:37.243Z,99406.77
2023-04-15T13:32:06.338Z,99409.63
2023-04-15T13:34:34.827Z,99409.03
2023-04-15T13:37:08.277Z,99408.62
2023-04-15T13:39:37.021Z,99410.83
2023-04-15T13:42:06.040Z,99412.21
2023-04-15T13:44:35.524Z,99413.68
2023-04-15T13:47:04.223Z,99415.34
2023-04-15T13:49:32.776Z,99411.94
2023-04-15T13:52:01.380Z,99412.39
2023-04-15T13:54:37.344Z,99415.10
2023-04-15T13:57:07.232Z,99412.61
2023-04-15T13:59:36.012Z,99414.48
2023-04-15T14:02:04.829Z,99418.05
2023-04-15T14:04:33.997Z,99412.91
2023-04-15T14:07:05.050Z,99414.59
2023-04-15T14:09:35.352Z,99410.08
2023-04-15T14:12:04.784Z,99413.08
2023-04-15T14:14:33.445Z,99413.59
2023-04-15T14:17:03.787Z,99415.48
2023-04-15T14:19:33.182Z,99415.76
2023-04-15T14:22:01.657Z,99412.02
2023-04-15T14:24:30.966Z,99409.60
2023-04-15T14:26:59.980Z,99410.42
2023-04-15T14:29:29.088Z,99409.64
2023-04-15T14:32:11.582Z,99416.58
2023-04-15T14:34:41.373Z,99418.77
2023-04-15T14:37:10.171Z,99421.27
2023-04-15T14:39:40.433Z,99423.97
2023-04-15T14:42:09.081Z,99428.44
2023-04-15T14:44:37.974Z,99430.23
2023-04-15T14:47:06.761Z,99432.59
2023-04-15T14:49:35.757Z,99433.05
2023-04-15T14:52:05.055Z,99437.71
2023-04-15T14:54:34.150Z,99439.39
2023-04-15T14:57:02.927Z,99446.41
2023-04-15T14:59:31.946Z,99454.38
2023-04-15T15:02:01.537Z,99451.15
2023-04-15T15:04:33.266Z,99450.84
2023-04-15T15:07:02.620Z,99454.35
2023-04-15T15:09:31.998Z,99457.67
2023-04-15T15:12:02.535Z,99461.35
2023-04-15T15:14:31.332Z,99456.70
2023-04-15T15:17:00.961Z,99463.54
2023-04-15T15:19:30.145Z,99464.96
2023-04-15T15:21:58.864Z,99470.91
2023-04-15T15:24:28.022Z,99476.30
2023-04-15T15:26:57.843Z,99474.59
2023-04-15T15:29:28.271Z,99484.55
2023-04-15T15:31:57.054Z,99485.42
2023-04-15T15:34:26.127Z,99485.09
2023-04-15T15:36:55.729Z,99484.41
2023-04-15T15:39:24.625Z,99482.06
2023-04-15T15:41:55.864Z,99481.67
2023-04-15T15:44:25.384Z,99479.80
2023-04-15T15:46:55.433Z,99482.48
2023-04-15T15:49:25.946Z,99485.85
2023-04-15T15:52:20.923Z,99491.22
2023-04-15T15:54:50.643Z,99494.43
2023-04-15T15:57:20.423Z,99500.61
2023-04-15T15:59:52.798Z,99497.19
2023-04-15T16:02:59.862Z,99496.58
2023-04-15T16:05:29.846Z,99498.23
2023-04-15T16:08:04.247Z,99500.89
2023-04-15T16:10:33.250Z,99505.79
2023-04-15T16:13:03.173Z,99508.90
2023-04-15T16:15:31.737Z,99511.71
2023-04-15T16:18:03.246Z,99512.90
2023-04-15T16:20:32.397Z,99515.14
2023-04-15T16:23:08.860Z,99514.39
2023-04-15T16:25:43.561Z,99521.34
2023-04-15T16:28:26.438Z,99521.47
2023-04-15T16:30:57.603Z,99523.84
2023-04-15T16:33:27.258Z,99528.98
2023-04-15T16:35:55.740Z,99530.48
2023-04-15T16:38:24.522Z,99533.98
2023-04-15T16:40:53.213Z,99534.41
2023-04-15T16:43:21.789Z,99529.87
2023-04-15T16:45:51.721Z,99533.98
2023-04-15T16:48:21.305Z,99537.27
2023-04-15T16:50:50.637Z,99545.75
2023-04-15T16:53:19.313Z,99551.86
2023-04-15T16:55:48.203Z,99554.45
2023-04-15T16:58:17.170Z,99557.79
2023-04-15T17:00:46.067Z,99561.02
2023-04-15T17:03:15.228Z,99564.58
2023-04-15T17:05:44.486Z,99564.16
2023-04-15T17:08:13.892Z,99561.05
2023-04-15T17:10:42.663Z,99562.90
2023-04-15T17:13:11.350Z,99569.80
2023-04-15T17:15:41.142Z,99572.46
2023-04-15T17:18:11.097Z,99577.39
2023-04-15T17:20:40.520Z,99580.98
2023-04-15T17:23:09.577Z,99585.67
2023-04-15T17:25:38.468Z,99588.94
2023-04-15T17:28:07.910Z,99593.66
2023-04-15T17:30:39.373Z,99583.59
2023-04-15T17:33:59.152Z,99597.66
2023-04-15T17:36:02.381Z,99601.91
2023-04-15T17:38:33.958Z,99601.11
2023-04-15T17:41:05.371Z,99607.94
2023-04-15T17:43:34.531Z,99610.02
2023-04-15T17:46:03.632Z,99609.60
2023-04-15T17:48:34.460Z,99612.02
2023-04-15T17:51:04.580Z,99616.95
2023-04-15T17:53:38.163Z,99621.05
2023-04-15T17:56:08.827Z,99630.23
2023-04-15T17:58:40.058Z,99634.41
2023-04-15T18:01:09.952Z,99634.32
2023-04-15T18:03:40.364Z,99636.48
2023-04-15T18:06:12.432Z,99644.29
2023-04-15T18:08:42.378Z,99655.35
2023-04-15T18:11:13.405Z,99662.69
2023-04-15T18:13:43.673Z,99673.63
2023-04-15T18:16:14.573Z,99681.33
2023-04-15T18:18:44.468Z,99684.24
2023-04-15T18:21:14.500Z,99688.27
2023-04-15T18:23:44.404Z,99690.91
2023-04-15T18:26:14.865Z,99696.75
2023-04-15T18:28:44.137Z,99698.63
2023-04-15T18:31:13.537Z,99702.19
2023-04-15T18:33:42.436Z,99700.28
2023-04-15T18:36:11.100Z,99709.30
2023-04-15T18:38:40.306Z,99709.13
2023-04-15T18:41:10.162Z,99714.80
2023-04-15T18:43:39.120Z,99716.80
2023-04-15T18:46:12.665Z,99721.01
2023-04-15T18:48:41.617Z,99720.52
2023-04-15T18:51:11.423Z,99727.38
2023-04-15T18:53:41.056Z,99725.83
2023-04-15T18:56:10.828Z,99728.25
2023-04-15T18:59:09.911Z,99731.02
2023-04-15T19:01:30.064Z,99737.85
2023-04-15T19:03:59.758Z,99744.33
2023-04-15T19:06:29.968Z,99746.25
2023-04-15T19:09:01.617Z,99748.46
2023-04-15T19:11:32.374Z,99748.67
2023-04-15T19:14:02.091Z,99749.45
2023-04-15T19:16:33.678Z,99752.15
2023-04-15T19:19:03.242Z,99752.80
2023-04-15T19:21:33.021Z,99757.14
2023-04-15T19:24:10.621Z,99760.13
2023-04-15T19:26:40.391Z,99761.48
2023-04-15T19:29:10.286Z,99764.52
2023-04-15T19:31:40.593Z,99767.27
2023-04-15T19:34:13.574Z,99771.20
2023-04-15T19:36:43.999Z,99773.14
2023-04-15T19:39:13.943Z,99776.00
2023-04-15T19:41:44.903Z,99777.33
2023-04-15T19:44:14.334Z,99781.75
2023-04-15T19:46:45.205Z,99779.55
2023-04-15T19:49:14.191Z,99783.33
2023-04-15T19:51:43.495Z,99783.48
2023-04-15T19:54:13.099Z,99788.51
2023-04-15T19:56:42.238Z,99791.27
2023-04-15T19:59:13.029Z,99794.49
2023-04-15T20:01:42.720Z,99800.45
2023-04-15T20:04:12.043Z,99800.07
2023-04-15T20:06:44.306Z,99805.47
2023-04-15T20:09:15.448Z,99805.05
2023-04-15T20:12:46.927Z,99807.02
2023-04-15T20:14:42.001Z,99806.23
2023-04-15T20:17:11.084Z,99806.88
2023-04-15T20:19:40.192Z,99809.01
2023-04-15T20:22:10.154Z,99811.41
2023-04-15T20:24:42.364Z,99814.08
2023-04-15T20:27:11.588Z,99812.10
2023-04-15T20:29:48.941Z,99817.31
2023-04-15T20:32:18.822Z,99819.59
2023-04-15T20:34:51.441Z,99812.77
2023-04-15T20:37:23.713Z,99825.00
2023-04-15T20:40:01.823Z,99830.00
2023-04-15T20:42:34.869Z,99828.21
2023-04-15T20:45:07.597Z,99828.58
2023-04-15T20:47:42.164Z,99828.02
2023-04-15T20:50:16.437Z,99829.50
2023-04-15T20:52:45.521Z,99825.68
2023-04-15T20:55:14.614Z,99829.27
2023-04-15T20:57:45.193Z,99826.38
2023-04-15T21:00:14.789Z,99832.41
2023-04-15T21:02:43.925Z,99826.82
2023-04-15T21:05:13.072Z,99838.16
2023-04-15T21:07:42.160Z,99842.09
2023-04-15T21:10:12.524Z,99845.69
2023-04-15T21:12:44.976Z,99848.07
2023-04-15T21:15:13.966Z,99858.06
2023-04-15T21:17:43.934Z,99858.00
2023-04-15T21:20:14.837Z,99861.02
2023-04-15T21:22:46.496Z,99861.92
2023-04-15T21:25:18.838Z,99866.15
2023-04-15T21:27:50.812Z,99866.35
2023-04-15T21:30:24.076Z,99866.11
2023-04-15T21:32:56.018Z,99864.31
2023-04-15T21:35:27.495Z,99871.70
2023-04-15T21:37:56.899Z,99869.54
2023-04-15T21:40:26.018Z,99871.72
2023-04-15T21:42:54.850Z,99875.08
2023-04-15T21:45:23.580Z,99877.42
2023-04-15T21:48:04.231Z,99882.29
2023-04-15T21:50:44.292Z,99885.52
2023-04-15T21:53:17.022Z,99886.85
2023-04-15T21:55:57.227Z,99887.94
2023-04-15T21:58:26.630Z,99889.16
2023-04-15T22:01:00.468Z,99883.63
2023-04-15T22:03:33.570Z,99892.21
2023-04-15T22:06:05.865Z,99897.33
2023-04-15T22:08:48.125Z,99900.44
2023-04-15T22:11:31.031Z,99902.66
2023-04-15T22:14:00.332Z,99909.48
2023-04-15T22:16:29.015Z,99915.19
2023-04-15T22:18:58.122Z,99918.82
2023-04-15T22:21:27.233Z,99919.70
2023-04-15T22:24:32.544Z,99923.83
2023-04-15T22:26:52.429Z,99914.96
2023-04-15T22:29:24.572Z,99925.58
2023-04-15T22:31:53.689Z,99927.94
2023-04-15T22:34:26.375Z,99928.39
2023-04-15T22:36:55.459Z,99930.45
2023-04-15T22:39:24.457Z,99935.59
2023-04-15T22:41:57.229Z,99930.78
2023-04-15T22:44:28.983Z,99930.66
2023-04-15T22:47:10.896Z,99926.69
2023-04-15T22:49:44.914Z,99926.14
2023-04-15T22:52:29.511Z,99927.09
2023-04-15T22:55:01.660Z,99928.20
2023-04-15T22:57:30.625Z,99937.07
2023-04-15T22:59:59.200Z,99941.48
2023-04-15T23:02:28.174Z,99947.05
2023-04-15T23:04:57.852Z,99948.34
2023-04-15T23:07:26.900Z,99949.61
2023-04-15T23:09:55.688Z,99952.66
2023-04-15T23:12:24.481Z,99958.39
2023-04-15T23:14:53.369Z,99958.46
2023-04-15T23:17:25.377Z,99964.52
2023-04-15T23:20:04.874Z,99965.74
2023-04-15T23:22:38.998Z,99966.45
2023-04-15T23:25:08.363Z,99964.89
2023-04-15T23:27:37.326Z,99963.04
2023-04-15T23:30:16.216Z,99963.40
2023-04-15T23:32:45.029Z,99967.83
2023-04-15T23:35:13.589Z,99962.20
2023-04-15T23:37:45.553Z,99962.34
2023-04-15T23:40:17.296Z,99962.98
2023-04-15T23:43:06.274Z,99966.85
2023-04-15T23:45:35.309Z,99964.75
2023-04-15T23:48:03.814Z,99960.20
2023-04-15T23:50:35.208Z,99968.84
2023-04-15T23:53:07.462Z,99968.52
2023-04-15T23:55:38.343Z,99969.25
2023-04-15T23:58:12.408Z,99972.16
